Time;durP1;ratioP1;P1;durP2;ratioP2;P2;SDS_P1;SDS_P2;PMS_P1;PMS_P2;Temp;Humidity;BMP_temperature;BMP_pressure;BME280_temperature;BME280_humidity;BME280_pressure;Samples;Min_cycle;Max_cycle;Signal;HPM_P1;HPM_P2
2023/07/28 04:02:18;;;;;;;0.90;0.80;;;17.70;97.30;;;;;;5127259;23;20511;-88
2023/07/28 04:04:44;;;;;;;1.10;1.00;;;17.70;97.30;;;;;;4934899;29;20443;-88
2023/07/28 04:07:09;;;;;;;0.90;0.80;;;17.70;97.30;;;;;;4934328;29;20200;-87
2023/07/28 04:09:35;;;;;;;0.87;0.80;;;17.70;97.30;;;;;;4934293;29;20467;-88
2023/07/28 04:12:03;;;;;;;2.93;2.40;;;17.70;97.30;;;;;;4934314;29;20211;-88
2023/07/28 04:14:36;;;;;;;1.00;0.90;;;17.70;97.30;;;;;;4934456;29;20179;-87
2023/07/28 04:17:02;;;;;;;1.00;0.90;;;17.70;97.30;;;;;;4989407;23;20431;-70
2023/07/28 04:19:29;;;;;;;1.23;1.03;;;17.70;97.30;;;;;;4948367;29;20463;-74
2023/07/28 04:21:54;;;;;;;0.93;0.83;;;17.70;97.30;;;;;;4950890;28;20564;-75
2023/07/28 04:24:20;;;;;;;1.00;0.90;;;17.70;97.30;;;;;;4952288;28;20545;-75
2023/07/28 04:26:48;;;;;;;1.20;1.07;;;17.70;97.30;;;;;;4944031;28;20223;-75
2023/07/28 04:29:14;;;;;;;1.10;1.00;;;17.70;97.30;;;;;;4943709;29;20277;-80
2023/07/28 04:31:40;;;;;;;0.90;0.80;;;17.60;97.30;;;;;;4952481;28;20589;-75
2023/07/28 04:34:05;;;;;;;0.90;0.90;;;17.60;97.30;;;;;;4953158;28;20192;-83
2023/07/28 04:36:31;;;;;;;1.30;1.10;;;17.60;97.30;;;;;;4951008;28;20334;-82
2023/07/28 04:38:56;;;;;;;1.20;1.10;;;17.70;97.30;;;;;;4943971;28;20210;-80
2023/07/28 04:41:22;;;;;;;0.80;0.70;;;17.70;97.30;;;;;;4951551;28;20420;-79
2023/07/28 04:43:47;;;;;;;0.90;0.80;;;17.70;97.30;;;;;;4942637;28;20225;-80
2023/07/28 04:46:13;;;;;;;1.07;0.90;;;17.70;97.30;;;;;;4951529;29;20195;-70
2023/07/28 04:48:38;;;;;;;1.37;1.27;;;17.70;97.30;;;;;;4952620;28;20314;-76
2023/07/28 04:51:04;;;;;;;0.83;0.73;;;17.70;97.30;;;;;;4947390;28;20218;-76
2023/07/28 04:53:30;;;;;;;1.13;1.10;;;17.60;97.30;;;;;;4948913;29;20656;-72
2023/07/28 04:55:55;;;;;;;1.23;0.97;;;17.70;97.30;;;;;;4950729;28;20179;-76
2023/07/28 04:58:21;;;;;;;1.03;0.97;;;17.70;97.30;;;;;;4950801;28;20680;-77
2023/07/28 05:00:46;;;;;;;0.87;0.73;;;17.70;97.30;;;;;;4950973;28;20675;-74
2023/07/28 05:03:12;;;;;;;0.90;0.80;;;17.70;97.30;;;;;;4944608;28;20276;-75
2023/07/28 05:05:37;;;;;;;0.80;0.70;;;17.70;97.30;;;;;;4939959;29;20203;-74
2023/07/28 05:08:03;;;;;;;0.90;0.80;;;17.70;97.30;;;;;;4951707;28;20686;-77
2023/07/28 05:10:29;;;;;;;1.73;1.17;;;17.70;97.30;;;;;;4951503;28;20571;-73
2023/07/28 05:12:54;;;;;;;0.90;0.80;;;17.70;97.30;;;;;;4950268;28;20185;-78
2023/07/28 05:15:20;;;;;;;0.83;0.73;;;17.70;97.30;;;;;;4952147;28;20191;-77
2023/07/28 05:17:45;;;;;;;1.43;1.00;;;17.70;97.30;;;;;;4935166;28;20270;-77
2023/07/28 05:20:11;;;;;;;0.90;0.80;;;17.70;97.30;;;;;;4951478;28;20285;-76
2023/07/28 05:22:37;;;;;;;0.70;0.70;;;17.80;97.30;;;;;;4943176;28;20245;-76
2023/07/28 05:25:02;;;;;;;0.90;0.80;;;17.80;97.30;;;;;;4951238;28;20438;-74
2023/07/28 05:27:28;;;;;;;0.90;0.80;;;17.80;97.30;;;;;;4942296;29;20230;-76
2023/07/28 05:29:53;;;;;;;0.97;0.87;;;17.80;97.30;;;;;;4949820;29;20205;-78
2023/07/28 05:32:19;;;;;;;1.20;1.10;;;17.80;97.30;;;;;;4942901;29;20350;-76
2023/07/28 05:34:45;;;;;;;1.00;0.90;;;17.80;97.30;;;;;;4946059;28;20244;-80
2023/07/28 05:37:10;;;;;;;0.90;0.80;;;17.80;97.30;;;;;;4941208;28;20508;-75
2023/07/28 05:39:36;;;;;;;1.00;0.90;;;17.80;97.30;;;;;;4940401;29;20190;-75
2023/07/28 05:42:02;;;;;;;2.00;0.80;;;17.80;97.30;;;;;;4941920;28;20204;-79
2023/07/28 05:44:28;;;;;;;0.80;0.70;;;17.80;97.30;;;;;;4944041;29;20184;-78
2023/07/28 05:46:54;;;;;;;0.90;0.80;;;17.80;97.30;;;;;;4939664;29;21696;-79
2023/07/28 05:49:19;;;;;;;1.07;0.97;;;17.80;97.30;;;;;;4941950;28;20503;-76
2023/07/28 05:51:45;;;;;;;2.20;1.20;;;17.80;97.30;;;;;;4942223;29;20211;-77
2023/07/28 05:54:14;;;;;;;0.77;0.73;;;17.90;97.30;;;;;;4942928;28;20218;-75
2023/07/28 05:56:40;;;;;;;1.00;0.90;;;17.90;97.30;;;;;;4941555;28;20204;-74
2023/07/28 05:59:05;;;;;;;1.10;0.80;;;17.90;97.30;;;;;;4949626;29;20915;-76
2023/07/28 06:01:31;;;;;;;1.37;0.90;;;17.90;97.30;;;;;;4949137;29;20549;-74
2023/07/28 06:03:59;;;;;;;0.73;0.70;;;18.00;97.30;;;;;;4948325;28;20274;-76
2023/07/28 06:06:25;;;;;;;2.63;1.13;;;18.00;97.30;;;;;;4950431;28;20286;-74
2023/07/28 06:08:51;;;;;;;0.80;0.70;;;18.00;97.30;;;;;;4940654;28;20479;-73
2023/07/28 06:11:16;;;;;;;0.87;0.77;;;18.00;97.30;;;;;;4949064;29;20447;-74
2023/07/28 06:13:42;;;;;;;0.90;0.80;;;18.10;97.30;;;;;;4949036;29;20353;-73
2023/07/28 06:16:07;;;;;;;1.00;0.90;;;18.10;97.30;;;;;;4949331;29;20291;-73
2023/07/28 06:18:33;;;;;;;1.10;1.00;;;18.10;97.30;;;;;;4947552;28;20285;-74
2023/07/28 06:20:58;;;;;;;1.53;1.43;;;18.10;97.30;;;;;;4955773;28;20237;-74
2023/07/28 06:23:24;;;;;;;1.40;1.30;;;18.10;97.30;;;;;;4939978;28;20187;-73
2023/07/28 06:25:50;;;;;;;1.47;0.97;;;18.20;97.30;;;;;;4946134;28;20186;-71
2023/07/28 06:28:15;;;;;;;1.00;0.90;;;18.20;97.30;;;;;;4952706;28;20342;-75
2023/07/28 06:30:41;;;;;;;0.90;0.80;;;18.20;97.30;;;;;;4951480;28;20233;-68
2023/07/28 06:33:07;;;;;;;1.27;1.17;;;18.30;97.30;;;;;;4953932;28;20184;-73
2023/07/28 06:35:32;;;;;;;1.03;0.93;;;18.30;97.30;;;;;;4950725;28;20721;-72
2023/07/28 06:38:01;;;;;;;0.80;0.70;;;18.30;97.30;;;;;;4959545;28;20233;-70
2023/07/28 06:40:26;;;;;;;0.93;0.87;;;18.40;97.30;;;;;;4953785;28;20474;-67
2023/07/28 06:42:52;;;;;;;3.37;0.90;;;18.40;97.30;;;;;;4958935;28;20964;-70
2023/07/28 06:45:17;;;;;;;1.93;0.90;;;18.40;97.30;;;;;;4956157;28;20600;-73
2023/07/28 06:47:43;;;;;;;1.00;0.80;;;18.40;97.30;;;;;;4961139;28;20218;-73
2023/07/28 06:50:11;;;;;;;1.37;1.13;;;18.50;97.30;;;;;;4951655;28;20215;-71
2023/07/28 06:52:36;;;;;;;0.90;0.80;;;18.50;97.30;;;;;;4944657;29;20434;-72
2023/07/28 06:55:02;;;;;;;0.90;0.80;;;18.50;97.30;;;;;;4945480;28;20431;-71
2023/07/28 06:57:28;;;;;;;1.03;1.00;;;18.50;97.30;;;;;;4931750;29;20598;-68
2023/07/28 06:59:54;;;;;;;0.90;0.80;;;18.50;97.30;;;;;;4934911;28;20997;-70
2023/07/28 07:02:19;;;;;;;1.00;0.73;;;18.60;97.30;;;;;;4938755;29;20203;-68
2023/07/28 07:04:45;;;;;;;0.70;0.70;;;18.70;97.30;;;;;;4943363;29;20881;-70
2023/07/28 07:07:11;;;;;;;0.90;0.80;;;18.70;97.30;;;;;;4952358;28;20322;-70
2023/07/28 07:09:37;;;;;;;0.90;0.83;;;18.80;97.30;;;;;;4952241;28;20522;-70
2023/07/28 07:12:03;;;;;;;2.00;1.10;;;18.80;97.30;;;;;;4945337;28;20623;-70
2023/07/28 07:14:28;;;;;;;0.83;0.77;;;18.90;97.30;;;;;;4944706;28;20188;-70
2023/07/28 07:16:54;;;;;;;0.80;0.70;;;19.00;97.30;;;;;;4938738;29;20663;-70
2023/07/28 07:19:19;;;;;;;0.90;0.80;;;19.00;97.30;;;;;;4938165;28;20615;-67
2023/07/28 07:21:45;;;;;;;0.80;0.80;;;19.10;97.30;;;;;;4944982;29;20681;-70
2023/07/28 07:24:13;;;;;;;1.00;0.90;;;19.20;97.30;;;;;;4953698;29;20183;-70
2023/07/28 07:26:39;;;;;;;1.43;1.33;;;19.30;97.30;;;;;;4950767;28;20266;-67
2023/07/28 07:29:05;;;;;;;1.10;1.00;;;19.30;97.30;;;;;;4940988;29;20426;-69
2023/07/28 07:31:31;;;;;;;1.50;1.20;;;19.40;97.30;;;;;;4942103;29;20443;-69
2023/07/28 07:33:56;;;;;;;1.00;1.00;;;19.40;97.30;;;;;;4951137;29;20457;-69
2023/07/28 07:36:22;;;;;;;1.10;1.00;;;19.50;97.30;;;;;;4960206;28;20203;-70
2023/07/28 07:38:48;;;;;;;0.90;0.80;;;19.60;97.30;;;;;;4945419;28;20660;-69
2023/07/28 07:41:19;;;;;;;0.90;0.80;;;19.60;97.30;;;;;;4952981;28;20199;-70
2023/07/28 07:43:45;;;;;;;0.77;0.70;;;19.60;97.30;;;;;;4952270;28;20415;-70
2023/07/28 07:46:10;;;;;;;1.03;0.97;;;19.60;97.30;;;;;;4951886;28;20473;-71
2023/07/28 07:48:36;;;;;;;1.43;1.20;;;19.60;97.30;;;;;;4952189;28;20290;-68
2023/07/28 07:51:01;;;;;;;0.77;0.73;;;19.70;97.30;;;;;;4951853;29;20714;-69
2023/07/28 07:53:27;;;;;;;0.90;0.83;;;19.80;97.30;;;;;;4952597;29;20182;-70
2023/07/28 07:55:52;;;;;;;0.93;0.87;;;19.80;97.30;;;;;;4952435;28;20927;-68
2023/07/28 07:58:18;;;;;;;1.00;0.90;;;19.90;97.30;;;;;;4950690;28;20852;-68
2023/07/28 08:00:44;;;;;;;1.00;0.90;;;19.90;97.30;;;;;;4952031;28;20590;-66
2023/07/28 08:03:10;;;;;;;1.00;0.90;;;20.00;97.30;;;;;;4952939;28;20193;-68
2023/07/28 08:05:35;;;;;;;2.97;1.37;;;20.10;97.30;;;;;;4946975;28;20211;-69
2023/07/28 08:08:01;;;;;;;0.90;0.80;;;20.20;97.30;;;;;;4950297;29;20459;-70
2023/07/28 08:10:27;;;;;;;5.30;2.67;;;20.20;97.30;;;;;;4951230;28;20199;-70
2023/07/28 08:12:52;;;;;;;0.90;0.80;;;20.20;97.30;;;;;;4952053;28;20594;-70
2023/07/28 08:15:18;;;;;;;1.27;1.20;;;20.30;97.30;;;;;;4952864;28;20206;-69
2023/07/28 08:17:45;;;;;;;1.00;0.90;;;20.30;97.30;;;;;;4952396;29;20274;-72
2023/07/28 08:20:12;;;;;;;0.77;0.73;;;20.40;97.30;;;;;;4953622;28;20612;-70
2023/07/28 08:22:37;;;;;;;0.80;0.70;;;20.40;97.30;;;;;;4952409;28;20427;-67
2023/07/28 08:25:04;;;;;;;1.53;1.47;;;20.50;97.30;;;;;;4951895;28;21101;-69
2023/07/28 08:27:29;;;;;;;0.90;0.80;;;20.60;97.30;;;;;;4951906;29;20286;-70
2023/07/28 08:29:55;;;;;;;0.97;0.87;;;20.60;97.30;;;;;;4953143;28;21026;-69
2023/07/28 08:32:21;;;;;;;1.17;1.07;;;20.60;97.30;;;;;;4953168;28;20199;-69
2023/07/28 08:34:47;;;;;;;1.23;1.13;;;20.60;97.30;;;;;;4953086;28;20643;-69
2023/07/28 08:37:13;;;;;;;19.23;1.60;;;20.60;97.30;;;;;;4959042;28;20427;-69
2023/07/28 08:39:39;;;;;;;1.33;1.13;;;20.60;97.30;;;;;;4951937;28;20774;-69
2023/07/28 08:42:04;;;;;;;1.10;1.00;;;20.60;97.30;;;;;;4951128;29;20203;-67
2023/07/28 08:44:34;;;;;;;1.93;1.47;;;20.70;97.30;;;;;;4951465;28;20238;-69
2023/07/28 08:47:01;;;;;;;1.00;0.90;;;20.70;97.30;;;;;;4951974;28;20431;-70
2023/07/28 08:49:27;;;;;;;1.53;1.27;;;20.70;97.30;;;;;;4950389;28;20425;-68
2023/07/28 08:51:58;;;;;;;2.30;1.27;;;20.70;97.30;;;;;;4952600;28;20842;-65
2023/07/28 08:54:23;;;;;;;0.90;0.80;;;20.70;97.30;;;;;;4951473;29;20231;-67
2023/07/28 08:56:50;;;;;;;5.27;0.90;;;20.70;97.30;;;;;;4951517;28;20430;-68
2023/07/28 08:59:29;;;;;;;2.60;1.93;;;20.80;97.30;;;;;;4951582;28;20651;-66
2023/07/28 09:01:58;;;;;;;3.37;1.13;;;20.90;97.30;;;;;;4951578;29;20807;-69
2023/07/28 09:04:24;;;;;;;0.70;0.70;;;20.90;97.30;;;;;;4952707;28;20489;-67
2023/07/28 09:06:50;;;;;;;1.33;1.27;;;21.00;97.30;;;;;;4954163;28;20426;-69
2023/07/28 09:09:17;;;;;;;2.40;1.37;;;21.00;97.30;;;;;;4958864;28;20466;-68
2023/07/28 09:11:48;;;;;;;2.67;1.20;;;21.00;97.30;;;;;;4958891;28;20468;-68
2023/07/28 09:14:16;;;;;;;1.20;1.10;;;21.10;97.30;;;;;;4956714;28;20430;-67
2023/07/28 09:16:45;;;;;;;1.37;1.20;;;21.10;97.30;;;;;;4957983;28;20561;-65
2023/07/28 09:19:11;;;;;;;1.27;1.20;;;21.20;97.30;;;;;;4958164;28;20427;-69
2023/07/28 09:21:39;;;;;;;0.90;0.80;;;21.30;97.30;;;;;;4955736;28;20441;-67
2023/07/28 09:24:14;;;;;;;1.30;1.23;;;21.30;97.30;;;;;;4951695;28;20454;-65
2023/07/28 09:26:41;;;;;;;1.33;1.23;;;21.40;97.30;;;;;;4947428;28;20417;-68
2023/07/28 09:29:16;;;;;;;1.30;1.20;;;21.50;97.30;;;;;;4950200;28;20478;-68
2023/07/28 09:31:42;;;;;;;1.00;0.90;;;21.60;97.30;;;;;;4949130;29;20438;-69
2023/07/28 09:34:09;;;;;;;1.50;1.40;;;21.70;97.30;;;;;;4951212;28;20425;-72
2023/07/28 09:36:35;;;;;;;0.80;0.70;;;21.70;97.30;;;;;;4958851;28;20431;-71
2023/07/28 09:39:03;;;;;;;0.93;0.83;;;21.80;97.30;;;;;;4946255;28;20465;-71
2023/07/28 09:41:30;;;;;;;0.70;0.70;;;22.00;97.30;;;;;;4952316;28;20578;-69
2023/07/28 09:43:57;;;;;;;1.03;0.93;;;22.10;97.30;;;;;;4952668;28;20426;-70
2023/07/28 09:46:24;;;;;;;1.23;1.17;;;22.20;97.30;;;;;;4955764;28;20525;-66
2023/07/28 09:48:55;;;;;;;1.00;0.90;;;22.10;97.30;;;;;;4957256;28;20458;-69
2023/07/28 09:51:23;;;;;;;1.00;0.90;;;22.10;97.30;;;;;;4955420;28;20443;-68
2023/07/28 09:53:55;;;;;;;0.80;0.80;;;22.00;97.30;;;;;;4959174;28;20431;-67
2023/07/28 09:56:24;;;;;;;2.03;1.20;;;22.00;97.30;;;;;;4956733;28;20419;-69
2023/07/28 09:58:52;;;;;;;1.73;1.10;;;22.00;97.30;;;;;;4954359;28;20449;-69
2023/07/28 10:01:21;;;;;;;1.10;1.00;;;22.10;97.30;;;;;;4957797;28;20450;-68
2023/07/28 10:03:47;;;;;;;2.10;1.33;;;22.10;97.30;;;;;;4958171;28;20417;-67
2023/07/28 10:06:14;;;;;;;0.90;0.90;;;22.10;97.30;;;;;;4954442;28;20635;-71
2023/07/28 10:08:40;;;;;;;1.00;0.90;;;22.20;97.30;;;;;;4956968;28;20210;-68
2023/07/28 10:11:06;;;;;;;0.90;0.80;;;22.30;97.30;;;;;;4954676;28;20443;-67
2023/07/28 10:13:43;;;;;;;0.80;0.70;;;22.40;97.30;;;;;;4958671;28;20414;-67
2023/07/28 10:16:14;;;;;;;1.37;1.27;;;22.50;97.30;;;;;;4955217;28;20414;-67
2023/07/28 10:18:40;;;;;;;1.17;1.10;;;22.60;97.30;;;;;;4959453;23;20490;-68
2023/07/28 10:21:13;;;;;;;1.00;0.90;;;22.80;97.30;;;;;;4939474;28;21030;-69
2023/07/28 10:23:39;;;;;;;11.70;1.40;;;23.00;97.30;;;;;;4946275;28;20427;-67
2023/07/28 10:26:07;;;;;;;1.00;0.90;;;23.00;97.30;;;;;;4938871;28;20534;-68
2023/07/28 10:28:38;;;;;;;0.90;0.80;;;23.10;97.30;;;;;;4938088;29;20211;-66
2023/07/28 10:31:06;;;;;;;1.20;1.10;;;23.10;97.30;;;;;;4937731;28;20457;-68
2023/07/28 10:33:39;;;;;;;1.27;1.17;;;23.20;97.30;;;;;;4935791;29;20451;-67
2023/07/28 10:36:13;;;;;;;1.53;1.10;;;23.40;97.30;;;;;;4937074;29;20887;-69
2023/07/28 10:38:39;;;;;;;1.23;1.13;;;23.50;97.30;;;;;;4934985;29;20434;-71
2023/07/28 10:41:16;;;;;;;1.07;1.00;;;23.50;96.50;;;;;;4935171;28;20443;-72
2023/07/28 10:43:43;;;;;;;1.20;1.13;;;23.60;97.00;;;;;;4933851;29;20551;-69
2023/07/28 10:46:10;;;;;;;1.03;0.93;;;23.80;97.00;;;;;;4932746;29;20636;-71
2023/07/28 10:48:41;;;;;;;1.70;1.00;;;23.90;96.00;;;;;;4931003;29;20849;-68
2023/07/28 10:51:07;;;;;;;0.90;0.80;;;23.90;95.00;;;;;;4936480;28;20450;-70
2023/07/28 10:53:33;;;;;;;3.37;1.07;;;23.90;95.50;;;;;;4923562;29;20797;-68
2023/07/28 10:56:00;;;;;;;1.30;1.20;;;23.80;95.10;;;;;;4926521;29;20192;-68
2023/07/28 10:58:26;;;;;;;1.33;1.07;;;23.70;95.50;;;;;;4923004;29;20519;-69
2023/07/28 11:00:54;;;;;;;1.30;0.80;;;23.70;96.20;;;;;;4933789;29;20519;-67
2023/07/28 11:03:20;;;;;;;0.90;0.80;;;23.70;95.90;;;;;;4933063;29;20661;-67
2023/07/28 11:05:47;;;;;;;0.90;0.80;;;23.70;96.10;;;;;;4923310;29;20425;-69
2023/07/28 11:08:13;;;;;;;1.23;1.20;;;23.70;95.80;;;;;;4923914;29;20216;-71
2023/07/28 11:10:40;;;;;;;1.37;1.33;;;23.60;95.60;;;;;;4932320;29;20451;-68
2023/07/28 11:13:06;;;;;;;0.97;0.90;;;23.50;95.70;;;;;;4931678;29;20236;-68
2023/07/28 11:15:33;;;;;;;1.10;1.00;;;23.40;96.20;;;;;;4933599;29;20434;-69
2023/07/28 11:17:59;;;;;;;1.93;1.13;;;23.30;95.80;;;;;;4937727;29;20473;-68
2023/07/28 11:20:29;;;;;;;1.07;1.00;;;23.30;96.00;;;;;;4939480;29;20451;-68
2023/07/28 11:23:03;;;;;;;0.90;0.80;;;23.40;96.80;;;;;;4941576;29;20434;-68
2023/07/28 11:25:30;;;;;;;1.00;0.90;;;23.50;96.60;;;;;;4938825;29;20873;-67
2023/07/28 11:27:56;;;;;;;1.10;0.80;;;23.50;95.90;;;;;;4938145;28;20538;-67
2023/07/28 11:30:22;;;;;;;2.30;1.00;;;23.60;95.90;;;;;;4939403;29;20435;-67
2023/07/28 11:32:50;;;;;;;1.00;0.90;;;23.80;96.40;;;;;;4939075;29;20438;-69
2023/07/28 11:35:18;;;;;;;1.10;1.00;;;23.90;95.50;;;;;;4928030;29;20442;-69
2023/07/28 11:37:46;;;;;;;0.70;0.70;;;24.10;95.60;;;;;;4947647;29;20919;-70
2023/07/28 11:40:15;;;;;;;0.90;0.80;;;24.20;94.90;;;;;;4941217;28;20434;-68
2023/07/28 11:42:45;;;;;;;1.00;0.90;;;24.20;93.80;;;;;;4933362;29;20439;-73
2023/07/28 11:45:13;;;;;;;1.00;0.90;;;24.30;94.50;;;;;;4929000;29;20465;-69
2023/07/28 11:47:38;;;;;;;1.00;0.90;;;24.30;94.30;;;;;;4933002;29;20504;-68
2023/07/28 11:50:04;;;;;;;0.93;0.83;;;24.30;94.00;;;;;;4931566;29;20475;-70
2023/07/28 11:52:35;;;;;;;1.00;0.90;;;24.30;94.70;;;;;;4931531;29;20228;-68
2023/07/28 11:55:02;;;;;;;0.70;0.70;;;24.20;93.70;;;;;;4932307;29;20430;-68
2023/07/28 11:57:30;;;;;;;1.00;0.90;;;24.20;92.80;;;;;;4932979;29;20788;-70
2023/07/28 11:59:56;;;;;;;0.90;0.80;;;24.30;93.90;;;;;;4932427;29;21028;-69
2023/07/28 12:02:27;;;;;;;2.93;0.90;;;24.40;94.10;;;;;;4932277;28;20833;-69
2023/07/28 12:04:54;;;;;;;1.30;1.20;;;24.60;94.10;;;;;;4933130;29;20432;-69
2023/07/28 12:07:33;;;;;;;0.80;0.80;;;24.70;93.30;;;;;;4932724;29;20468;-72
2023/07/28 12:10:08;;;;;;;1.17;1.07;;;24.90;93.80;;;;;;4931477;29;20430;-68
2023/07/28 12:12:41;;;;;;;0.80;0.80;;;25.00;92.60;;;;;;4929496;29;20916;-76
2023/07/28 12:15:28;;;;;;;0.90;0.80;;;25.20;91.60;;;;;;4931813;29;20449;-69
2023/07/28 12:18:10;;;;;;;1.10;0.87;;;25.30;90.30;;;;;;4931297;28;20552;-69
2023/07/28 12:20:36;;;;;;;1.00;0.90;;;25.40;91.20;;;;;;4931074;29;20443;-69
2023/07/28 12:23:03;;;;;;;1.13;1.03;;;25.60;91.40;;;;;;4931267;29;20427;-68
2023/07/28 12:25:29;;;;;;;0.80;0.70;;;25.70;90.80;;;;;;4932627;29;21080;-68
2023/07/28 12:27:55;;;;;;;0.90;0.80;;;25.80;90.40;;;;;;4932487;29;20567;-68
2023/07/28 12:30:21;;;;;;;0.93;0.90;;;25.80;89.70;;;;;;4932851;29;20470;-68
2023/07/28 12:32:47;;;;;;;0.97;0.87;;;25.80;90.00;;;;;;4928035;29;20426;-68
2023/07/28 12:35:13;;;;;;;0.90;0.80;;;25.80;90.10;;;;;;4928205;29;20427;-69
2023/07/28 12:37:38;;;;;;;0.80;0.70;;;25.70;89.60;;;;;;4929190;29;20175;-68
2023/07/28 12:40:05;;;;;;;0.90;0.80;;;25.70;89.20;;;;;;4931320;29;20188;-68
2023/07/28 12:42:31;;;;;;;1.00;0.90;;;25.60;89.80;;;;;;4923509;29;20179;-68
2023/07/28 12:44:57;;;;;;;0.90;0.80;;;25.50;89.70;;;;;;4929658;29;20423;-68
2023/07/28 12:47:23;;;;;;;0.90;0.80;;;25.50;90.50;;;;;;4928072;29;20199;-68
2023/07/28 12:49:49;;;;;;;0.90;0.80;;;25.60;90.20;;;;;;4928828;29;20469;-68
2023/07/28 12:52:15;;;;;;;0.90;0.80;;;25.70;90.90;;;;;;4929829;29;20951;-69
2023/07/28 12:54:42;;;;;;;1.00;0.90;;;25.80;90.00;;;;;;4929276;29;20700;-73
2023/07/28 12:57:10;;;;;;;0.80;0.70;;;26.00;89.60;;;;;;4928542;29;20933;-69
2023/07/28 12:59:39;;;;;;;0.77;0.77;;;26.00;88.70;;;;;;4930635;29;20518;-69
2023/07/28 13:02:04;;;;;;;0.70;0.60;;;25.90;88.90;;;;;;4926867;29;20449;-68
2023/07/28 13:04:30;;;;;;;0.80;0.70;;;25.80;88.80;;;;;;4944898;29;20940;-69
2023/07/28 13:06:55;;;;;;;1.83;0.90;;;25.70;90.00;;;;;;4939313;29;20226;-68
2023/07/28 13:09:21;;;;;;;0.90;0.80;;;25.80;90.50;;;;;;4938292;29;20191;-71
2023/07/28 13:11:46;;;;;;;1.03;1.00;;;26.00;89.90;;;;;;4939928;28;20278;-71
2023/07/28 13:14:12;;;;;;;1.33;1.00;;;26.00;88.50;;;;;;4934331;28;20180;-71
2023/07/28 13:16:38;;;;;;;0.70;0.70;;;26.10;88.40;;;;;;4944361;29;20179;-71
2023/07/28 13:19:04;;;;;;;1.97;1.00;;;26.10;89.80;;;;;;4945738;28;20241;-70
2023/07/28 13:21:29;;;;;;;1.07;1.03;;;26.30;89.00;;;;;;4932591;28;20223;-71
2023/07/28 13:23:55;;;;;;;1.20;1.10;;;26.40;89.10;;;;;;4932046;29;20920;-70
2023/07/28 13:26:21;;;;;;;2.37;2.17;;;26.30;88.50;;;;;;4932457;29;20188;-71
2023/07/28 13:28:47;;;;;;;1.00;0.80;;;26.30;88.80;;;;;;4932783;29;20222;-69
2023/07/28 13:31:15;;;;;;;0.90;0.80;;;26.40;87.90;;;;;;4938556;28;20305;-71
2023/07/28 13:33:41;;;;;;;1.20;1.03;;;26.50;89.20;;;;;;4936690;29;20422;-69
2023/07/28 13:36:09;;;;;;;0.80;0.70;;;26.60;87.30;;;;;;4935729;29;20439;-71
2023/07/28 13:38:35;;;;;;;2.60;0.90;;;26.70;86.80;;;;;;4925311;29;20266;-71
2023/07/28 13:41:05;;;;;;;0.80;0.70;;;26.80;87.20;;;;;;4933092;29;21121;-71
2023/07/28 13:43:31;;;;;;;0.67;0.60;;;26.90;87.20;;;;;;4933413;29;20470;-71
2023/07/28 13:45:57;;;;;;;1.13;0.93;;;27.00;86.40;;;;;;4934165;29;20953;-69
2023/07/28 13:48:23;;;;;;;0.97;0.87;;;26.90;85.70;;;;;;4932546;29;20203;-69
2023/07/28 13:50:48;;;;;;;0.80;0.70;;;26.90;87.00;;;;;;4932961;29;20506;-69
2023/07/28 13:53:14;;;;;;;0.90;0.80;;;27.10;88.00;;;;;;4931441;29;20687;-70
2023/07/28 13:55:39;;;;;;;1.00;0.90;;;27.20;85.50;;;;;;4932814;29;20697;-69
2023/07/28 13:58:06;;;;;;;1.10;1.00;;;27.30;84.40;;;;;;4937663;29;20278;-69
2023/07/28 14:00:32;;;;;;;0.90;0.80;;;27.40;84.80;;;;;;4933316;28;20211;-71
2023/07/28 14:02:57;;;;;;;0.90;0.80;;;27.40;84.90;;;;;;4932641;29;20487;-70
2023/07/28 14:05:23;;;;;;;1.00;0.90;;;27.50;84.30;;;;;;4932701;29;20196;-70
2023/07/28 14:07:49;;;;;;;0.87;0.80;;;27.50;85.00;;;;;;4932505;29;20226;-70
2023/07/28 14:10:14;;;;;;;0.80;0.80;;;27.50;83.90;;;;;;4932356;29;20188;-70
2023/07/28 14:12:40;;;;;;;1.40;1.30;;;27.50;84.30;;;;;;4931420;29;20176;-71
2023/07/28 14:15:07;;;;;;;0.90;0.83;;;27.60;83.70;;;;;;4932603;29;20190;-70
2023/07/28 14:17:32;;;;;;;0.80;0.70;;;27.70;84.80;;;;;;4932384;29;20713;-71
2023/07/28 14:19:58;;;;;;;0.87;0.77;;;27.70;83.80;;;;;;4932487;29;21067;-69
2023/07/28 14:22:24;;;;;;;0.87;0.80;;;27.80;83.40;;;;;;4932490;29;20212;-71
2023/07/28 14:24:50;;;;;;;1.37;1.00;;;27.80;81.10;;;;;;4932607;29;20187;-69
2023/07/28 14:27:16;;;;;;;1.50;1.50;;;27.60;81.90;;;;;;4930177;29;20222;-70
2023/07/28 14:29:41;;;;;;;1.20;1.10;;;27.60;83.10;;;;;;4930862;29;20515;-70
2023/07/28 14:32:07;;;;;;;0.80;0.70;;;27.80;83.50;;;;;;4925480;29;20208;-69
2023/07/28 14:34:33;;;;;;;1.40;1.30;;;27.90;82.30;;;;;;4930075;29;21624;-71
2023/07/28 14:37:03;;;;;;;0.90;0.80;;;28.00;81.30;;;;;;4933407;29;20515;-69
2023/07/28 14:39:29;;;;;;;0.97;0.87;;;28.00;81.90;;;;;;4929001;29;20428;-70
2023/07/28 14:41:54;;;;;;;0.80;0.70;;;28.10;82.30;;;;;;4930996;29;20618;-70
2023/07/28 14:44:20;;;;;;;6.17;1.63;;;28.20;80.80;;;;;;4929767;29;20216;-69
2023/07/28 14:46:46;;;;;;;0.73;0.67;;;28.20;81.00;;;;;;4930714;29;20184;-69
2023/07/28 14:49:12;;;;;;;0.83;0.77;;;28.10;81.40;;;;;;4929460;29;20333;-70
2023/07/28 14:51:37;;;;;;;0.77;0.73;;;28.00;81.60;;;;;;4930490;29;21123;-69
2023/07/28 14:54:03;;;;;;;1.23;1.13;;;28.10;81.60;;;;;;4929767;29;20188;-70
2023/07/28 14:56:28;;;;;;;0.90;0.80;;;28.30;82.80;;;;;;4928692;29;20188;-70
2023/07/28 14:58:55;;;;;;;0.97;0.87;;;28.20;81.50;;;;;;4929882;29;20188;-70
2023/07/28 15:01:20;;;;;;;0.97;0.90;;;28.10;80.70;;;;;;4929274;29;20210;-68
2023/07/28 15:03:46;;;;;;;0.80;0.80;;;27.80;80.90;;;;;;4920805;29;20428;-69
2023/07/28 15:06:12;;;;;;;1.00;0.90;;;27.70;81.90;;;;;;4926317;29;20188;-68
2023/07/28 15:08:38;;;;;;;3.00;1.80;;;27.60;82.10;;;;;;4928893;29;20809;-68
2023/07/28 15:11:03;;;;;;;1.57;1.37;;;27.50;81.80;;;;;;4930557;29;20218;-69
2023/07/28 15:13:29;;;;;;;1.03;0.90;;;27.40;82.20;;;;;;4930382;29;20184;-68
2023/07/28 15:15:55;;;;;;;1.00;0.90;;;27.40;82.30;;;;;;4930479;29;20184;-68
2023/07/28 15:18:20;;;;;;;1.07;0.90;;;27.40;82.90;;;;;;4929566;29;20227;-67
2023/07/28 15:20:46;;;;;;;1.27;1.17;;;27.30;81.50;;;;;;4929723;29;20459;-69
2023/07/28 15:23:11;;;;;;;1.00;0.90;;;27.20;81.40;;;;;;4934212;29;20194;-68
2023/07/28 15:25:42;;;;;;;0.90;0.80;;;27.10;81.60;;;;;;4936848;29;20200;-68
2023/07/28 15:28:09;;;;;;;1.83;1.73;;;27.10;81.40;;;;;;4931831;29;20294;-68
2023/07/28 15:30:34;;;;;;;2.20;1.57;;;27.00;81.80;;;;;;4933138;29;20580;-68
2023/07/28 15:33:00;;;;;;;1.10;0.83;;;27.00;82.00;;;;;;4931543;29;20977;-68
2023/07/28 15:35:25;;;;;;;1.10;1.00;;;27.10;82.60;;;;;;4935824;29;20624;-68
2023/07/28 15:37:51;;;;;;;0.97;0.87;;;27.20;82.10;;;;;;4931948;29;20199;-68
2023/07/28 15:40:16;;;;;;;1.03;0.90;;;27.40;81.40;;;;;;4932560;29;20735;-69
2023/07/28 15:42:42;;;;;;;2.40;1.30;;;27.60;82.00;;;;;;4931642;29;20194;-69
2023/07/28 15:45:08;;;;;;;1.13;1.00;;;27.70;81.50;;;;;;4931061;29;20199;-68
2023/07/28 15:47:35;;;;;;;1.10;1.00;;;27.70;80.80;;;;;;4931707;29;20236;-69
2023/07/28 15:50:04;;;;;;;0.90;0.80;;;27.70;81.10;;;;;;4931087;29;20179;-69
2023/07/28 15:52:30;;;;;;;1.20;1.10;;;27.60;80.70;;;;;;4932447;29;20423;-69
2023/07/28 15:54:56;;;;;;;1.00;0.93;;;27.60;80.80;;;;;;4930488;29;20434;-68
2023/07/28 15:57:22;;;;;;;1.43;1.10;;;27.60;81.20;;;;;;4932197;29;20423;-71
2023/07/28 15:59:48;;;;;;;0.83;0.83;;;27.60;82.00;;;;;;4932940;29;20618;-69
2023/07/28 16:02:13;;;;;;;1.33;1.33;;;27.40;81.80;;;;;;4932793;29;20923;-68
2023/07/28 16:04:40;;;;;;;0.70;0.70;;;27.40;82.20;;;;;;4931092;29;20611;-68
2023/07/28 16:07:06;;;;;;;0.90;0.90;;;27.40;81.50;;;;;;4933285;29;20424;-68
2023/07/28 16:09:31;;;;;;;1.07;0.97;;;27.40;82.20;;;;;;4933141;29;20176;-68
2023/07/28 16:11:57;;;;;;;1.10;0.87;;;27.60;83.00;;;;;;4931888;29;20727;-68
2023/07/28 16:14:22;;;;;;;1.00;1.00;;;27.70;81.80;;;;;;4929242;29;20180;-69
2023/07/28 16:16:48;;;;;;;1.60;1.50;;;27.80;82.40;;;;;;4931884;29;20207;-68
2023/07/28 16:19:14;;;;;;;1.10;1.00;;;27.80;81.90;;;;;;4959074;23;20663;-89
2023/07/28 16:21:39;;;;;;;1.73;1.63;;;27.70;82.30;;;;;;4946614;29;20585;-90
2023/07/28 16:24:06;;;;;;;1.00;0.90;;;27.70;82.60;;;;;;4946595;29;20642;-89
2023/07/28 16:26:31;;;;;;;1.10;0.90;;;27.70;83.20;;;;;;4946236;29;20184;-89
2023/07/28 16:28:57;;;;;;;0.90;0.90;;;27.80;83.10;;;;;;4949967;28;20479;-89
2023/07/28 16:31:23;;;;;;;0.90;0.80;;;27.80;81.90;;;;;;4950138;29;20701;-89
2023/07/28 16:33:48;;;;;;;1.10;0.93;;;27.80;82.60;;;;;;4952691;28;20179;-89
2023/07/28 16:36:14;;;;;;;1.23;1.07;;;27.80;82.70;;;;;;4953470;28;20203;-89
2023/07/28 16:38:39;;;;;;;1.00;0.90;;;27.90;82.80;;;;;;4953657;28;20242;-89
2023/07/28 16:41:05;;;;;;;1.20;1.03;;;27.90;82.60;;;;;;4951988;28;20681;-89
2023/07/28 16:43:30;;;;;;;0.90;0.80;;;28.00;83.40;;;;;;4952627;29;20189;-89
2023/07/28 16:45:56;;;;;;;1.07;0.97;;;28.00;82.50;;;;;;4952599;29;20355;-90